sensor_id;sensor_type;location;lat;lon;timestamp;P1;durP1;ratioP1;P2;durP2;ratioP2
42514;SDS011;28144;49.920;18.730;2023-07-29T00:01:16;6.50;;;4.32;;
42514;SDS011;28144;49.920;18.730;2023-07-29T00:03:43;5.63;;;3.33;;
42514;SDS011;28144;49.920;18.730;2023-07-29T00:06:10;4.95;;;3.90;;
42514;SDS011;28144;49.920;18.730;2023-07-29T00:08:37;6.68;;;3.70;;
42514;SDS011;28144;49.920;18.730;2023-07-29T00:11:04;6.13;;;4.40;;
42514;SDS011;28144;49.920;18.730;2023-07-29T00:13:30;7.05;;;4.72;;
42514;SDS011;28144;49.920;18.730;2023-07-29T00:15:57;7.53;;;4.07;;
42514;SDS011;28144;49.920;18.730;2023-07-29T00:18:23;7.15;;;4.82;;
42514;SDS011;28144;49.920;18.730;2023-07-29T00:20:50;6.72;;;4.50;;
42514;SDS011;28144;49.920;18.730;2023-07-29T00:23:17;7.03;;;5.15;;
42514;SDS011;28144;49.920;18.730;2023-07-29T00:25:47;6.72;;;5.22;;
42514;SDS011;28144;49.920;18.730;2023-07-29T00:28:16;11.95;;;6.97;;
42514;SDS011;28144;49.920;18.730;2023-07-29T00:30:43;6.68;;;4.35;;
42514;SDS011;28144;49.920;18.730;2023-07-29T00:33:09;7.57;;;4.93;;
42514;SDS011;28144;49.920;18.730;2023-07-29T00:35:38;8.38;;;5.65;;
42514;SDS011;28144;49.920;18.730;2023-07-29T00:38:13;13.30;;;6.43;;
42514;SDS011;28144;49.920;18.730;2023-07-29T00:40:39;13.65;;;6.50;;
42514;SDS011;28144;49.920;18.730;2023-07-29T00:43:06;12.03;;;6.70;;
42514;SDS011;28144;49.920;18.730;2023-07-29T00:45:32;11.27;;;6.40;;
42514;SDS011;28144;49.920;18.730;2023-07-29T00:47:59;14.13;;;6.65;;
42514;SDS011;28144;49.920;18.730;2023-07-29T00:50:26;12.90;;;6.78;;
42514;SDS011;28144;49.920;18.730;2023-07-29T00:53:05;16.48;;;7.45;;
42514;SDS011;28144;49.920;18.730;2023-07-29T01:00:01;7.82;;;5.38;;
42514;SDS011;28144;49.920;18.730;2023-07-29T01:02:28;7.78;;;4.97;;
42514;SDS011;28144;49.920;18.730;2023-07-29T01:04:59;15.02;;;5.80;;
42514;SDS011;28144;49.920;18.730;2023-07-29T01:07:29;8.02;;;5.20;;
42514;SDS011;28144;49.920;18.730;2023-07-29T01:18:18;7.50;;;4.95;;
42514;SDS011;28144;49.920;18.730;2023-07-29T01:20:51;8.85;;;4.47;;
42514;SDS011;28144;49.920;18.730;2023-07-29T01:23:26;6.50;;;4.20;;
42514;SDS011;28144;49.920;18.730;2023-07-29T01:25:54;4.78;;;4.13;;
42514;SDS011;28144;49.920;18.730;2023-07-29T01:28:20;8.97;;;3.80;;
42514;SDS011;28144;49.920;18.730;2023-07-29T01:30:46;6.40;;;4.00;;
42514;SDS011;28144;49.920;18.730;2023-07-29T01:33:17;5.65;;;3.53;;
42514;SDS011;28144;49.920;18.730;2023-07-29T01:35:47;8.00;;;4.65;;
42514;SDS011;28144;49.920;18.730;2023-07-29T01:38:18;6.15;;;4.40;;
42514;SDS011;28144;49.920;18.730;2023-07-29T01:40:47;11.45;;;4.22;;
42514;SDS011;28144;49.920;18.730;2023-07-29T01:43:14;8.68;;;4.63;;
42514;SDS011;28144;49.920;18.730;2023-07-29T01:45:40;5.40;;;4.03;;
42514;SDS011;28144;49.920;18.730;2023-07-29T01:48:06;9.80;;;4.50;;
42514;SDS011;28144;49.920;18.730;2023-07-29T01:50:33;9.55;;;5.20;;
42514;SDS011;28144;49.920;18.730;2023-07-29T01:52:59;10.10;;;4.32;;
42514;SDS011;28144;49.920;18.730;2023-07-29T01:55:25;7.90;;;4.75;;
42514;SDS011;28144;49.920;18.730;2023-07-29T01:57:51;5.87;;;4.30;;
42514;SDS011;28144;49.920;18.730;2023-07-29T02:00:20;8.70;;;4.68;;
42514;SDS011;28144;49.920;18.730;2023-07-29T02:02:46;7.25;;;4.57;;
42514;SDS011;28144;49.920;18.730;2023-07-29T02:05:12;8.25;;;4.40;;
42514;SDS011;28144;49.920;18.730;2023-07-29T02:07:38;6.50;;;4.63;;
42514;SDS011;28144;49.920;18.730;2023-07-29T02:10:04;9.40;;;4.80;;
42514;SDS011;28144;49.920;18.730;2023-07-29T02:12:30;6.00;;;4.65;;
42514;SDS011;28144;49.920;18.730;2023-07-29T02:14:56;7.25;;;4.40;;
42514;SDS011;28144;49.920;18.730;2023-07-29T02:17:21;7.80;;;4.90;;
42514;SDS011;28144;49.920;18.730;2023-07-29T02:19:47;9.07;;;4.90;;
42514;SDS011;28144;49.920;18.730;2023-07-29T02:22:14;6.10;;;4.50;;
42514;SDS011;28144;49.920;18.730;2023-07-29T02:24:41;6.93;;;4.85;;
42514;SDS011;28144;49.920;18.730;2023-07-29T02:27:07;11.07;;;4.80;;
42514;SDS011;28144;49.920;18.730;2023-07-29T02:29:33;8.43;;;4.78;;
42514;SDS011;28144;49.920;18.730;2023-07-29T02:31:59;7.97;;;4.77;;
42514;SDS011;28144;49.920;18.730;2023-07-29T02:34:25;9.88;;;4.47;;
42514;SDS011;28144;49.920;18.730;2023-07-29T02:36:51;14.63;;;8.23;;
42514;SDS011;28144;49.920;18.730;2023-07-29T02:39:17;7.85;;;4.35;;
42514;SDS011;28144;49.920;18.730;2023-07-29T02:41:42;5.53;;;4.60;;
42514;SDS011;28144;49.920;18.730;2023-07-29T02:44:08;6.53;;;5.10;;
42514;SDS011;28144;49.920;18.730;2023-07-29T02:46:34;8.63;;;4.90;;
42514;SDS011;28144;49.920;18.730;2023-07-29T02:49:01;6.85;;;4.07;;
42514;SDS011;28144;49.920;18.730;2023-07-29T02:51:27;8.27;;;4.70;;
42514;SDS011;28144;49.920;18.730;2023-07-29T02:53:53;8.77;;;4.57;;
42514;SDS011;28144;49.920;18.730;2023-07-29T02:56:18;7.67;;;4.57;;
42514;SDS011;28144;49.920;18.730;2023-07-29T02:58:44;7.05;;;4.55;;
42514;SDS011;28144;49.920;18.730;2023-07-29T03:01:10;5.27;;;3.93;;
42514;SDS011;28144;49.920;18.730;2023-07-29T03:03:36;9.15;;;4.85;;
42514;SDS011;28144;49.920;18.730;2023-07-29T03:06:02;6.53;;;4.50;;
42514;SDS011;28144;49.920;18.730;2023-07-29T03:08:35;10.20;;;4.57;;
42514;SDS011;28144;49.920;18.730;2023-07-29T03:11:08;7.18;;;5.00;;
42514;SDS011;28144;49.920;18.730;2023-07-29T03:13:35;7.78;;;4.55;;
42514;SDS011;28144;49.920;18.730;2023-07-29T03:16:05;6.43;;;4.45;;
42514;SDS011;28144;49.920;18.730;2023-07-29T03:18:38;8.00;;;4.68;;
42514;SDS011;28144;49.920;18.730;2023-07-29T03:21:04;12.45;;;5.32;;
42514;SDS011;28144;49.920;18.730;2023-07-29T03:23:30;10.85;;;5.80;;
42514;SDS011;28144;49.920;18.730;2023-07-29T03:28:25;10.48;;;4.55;;
42514;SDS011;28144;49.920;18.730;2023-07-29T03:30:53;19.80;;;11.73;;
42514;SDS011;28144;49.920;18.730;2023-07-29T03:33:19;19.30;;;10.43;;
42514;SDS011;28144;49.920;18.730;2023-07-29T03:35:44;8.20;;;4.90;;
42514;SDS011;28144;49.920;18.730;2023-07-29T03:38:11;10.55;;;3.72;;
42514;SDS011;28144;49.920;18.730;2023-07-29T03:40:37;6.38;;;3.70;;
42514;SDS011;28144;49.920;18.730;2023-07-29T03:43:04;9.48;;;4.57;;
42514;SDS011;28144;49.920;18.730;2023-07-29T03:45:30;7.57;;;5.13;;
42514;SDS011;28144;49.920;18.730;2023-07-29T03:47:56;9.60;;;4.47;;
42514;SDS011;28144;49.920;18.730;2023-07-29T03:50:21;7.23;;;4.53;;
42514;SDS011;28144;49.920;18.730;2023-07-29T03:52:47;8.15;;;4.30;;
42514;SDS011;28144;49.920;18.730;2023-07-29T03:55:13;7.57;;;3.60;;
42514;SDS011;28144;49.920;18.730;2023-07-29T03:57:39;11.75;;;3.72;;
42514;SDS011;28144;49.920;18.730;2023-07-29T04:00:05;8.13;;;4.17;;
42514;SDS011;28144;49.920;18.730;2023-07-29T04:02:31;6.45;;;3.95;;
42514;SDS011;28144;49.920;18.730;2023-07-29T04:04:57;6.88;;;3.63;;
42514;SDS011;28144;49.920;18.730;2023-07-29T04:07:23;9.68;;;4.70;;
42514;SDS011;28144;49.920;18.730;2023-07-29T04:09:48;13.18;;;6.82;;
42514;SDS011;28144;49.920;18.730;2023-07-29T04:12:15;14.63;;;7.47;;
42514;SDS011;28144;49.920;18.730;2023-07-29T04:14:41;12.05;;;6.80;;
42514;SDS011;28144;49.920;18.730;2023-07-29T04:17:07;8.52;;;6.38;;
42514;SDS011;28144;49.920;18.730;2023-07-29T04:19:33;7.57;;;4.55;;
42514;SDS011;28144;49.920;18.730;2023-07-29T04:21:59;6.22;;;4.57;;
42514;SDS011;28144;49.920;18.730;2023-07-29T04:24:24;9.00;;;3.97;;
42514;SDS011;28144;49.920;18.730;2023-07-29T04:26:50;8.88;;;4.55;;
42514;SDS011;28144;49.920;18.730;2023-07-29T04:29:16;8.67;;;4.60;;
42514;SDS011;28144;49.920;18.730;2023-07-29T04:31:42;8.00;;;5.68;;
42514;SDS011;28144;49.920;18.730;2023-07-29T04:34:07;7.33;;;5.07;;
42514;SDS011;28144;49.920;18.730;2023-07-29T04:36:34;8.98;;;4.45;;
42514;SDS011;28144;49.920;18.730;2023-07-29T04:39:00;9.20;;;4.78;;
42514;SDS011;28144;49.920;18.730;2023-07-29T04:41:26;10.32;;;4.32;;
42514;SDS011;28144;49.920;18.730;2023-07-29T04:43:51;9.32;;;4.03;;
42514;SDS011;28144;49.920;18.730;2023-07-29T04:46:18;6.60;;;4.38;;
42514;SDS011;28144;49.920;18.730;2023-07-29T04:48:43;6.13;;;4.10;;
42514;SDS011;28144;49.920;18.730;2023-07-29T04:51:09;9.30;;;4.25;;
42514;SDS011;28144;49.920;18.730;2023-07-29T04:53:35;13.47;;;3.90;;
42514;SDS011;28144;49.920;18.730;2023-07-29T04:56:02;12.82;;;4.28;;
42514;SDS011;28144;49.920;18.730;2023-07-29T04:58:28;7.40;;;3.78;;
42514;SDS011;28144;49.920;18.730;2023-07-29T05:00:55;5.72;;;3.63;;
42514;SDS011;28144;49.920;18.730;2023-07-29T05:03:21;6.70;;;3.47;;
42514;SDS011;28144;49.920;18.730;2023-07-29T05:05:47;10.32;;;3.90;;
42514;SDS011;28144;49.920;18.730;2023-07-29T05:08:13;4.60;;;3.67;;
42514;SDS011;28144;49.920;18.730;2023-07-29T05:10:38;7.50;;;3.60;;
42514;SDS011;28144;49.920;18.730;2023-07-29T05:13:04;5.83;;;3.63;;
42514;SDS011;28144;49.920;18.730;2023-07-29T05:15:30;5.75;;;3.50;;
42514;SDS011;28144;49.920;18.730;2023-07-29T05:17:56;6.55;;;3.70;;
42514;SDS011;28144;49.920;18.730;2023-07-29T05:20:21;5.32;;;3.47;;
42514;SDS011;28144;49.920;18.730;2023-07-29T05:22:47;6.80;;;3.58;;
42514;SDS011;28144;49.920;18.730;2023-07-29T05:25:13;8.32;;;3.63;;
42514;SDS011;28144;49.920;18.730;2023-07-29T05:27:39;6.68;;;3.05;;
42514;SDS011;28144;49.920;18.730;2023-07-29T05:30:05;7.05;;;3.05;;
42514;SDS011;28144;49.920;18.730;2023-07-29T05:32:31;7.47;;;3.28;;
42514;SDS011;28144;49.920;18.730;2023-07-29T05:34:57;10.88;;;3.58;;
42514;SDS011;28144;49.920;18.730;2023-07-29T05:37:23;5.67;;;2.70;;
42514;SDS011;28144;49.920;18.730;2023-07-29T05:39:49;8.20;;;2.83;;
42514;SDS011;28144;49.920;18.730;2023-07-29T05:42:14;5.80;;;3.03;;
42514;SDS011;28144;49.920;18.730;2023-07-29T05:44:40;5.85;;;3.03;;
42514;SDS011;28144;49.920;18.730;2023-07-29T05:47:06;3.70;;;2.63;;
42514;SDS011;28144;49.920;18.730;2023-07-29T05:49:32;5.10;;;2.67;;
42514;SDS011;28144;49.920;18.730;2023-07-29T05:51:58;4.80;;;2.88;;
42514;SDS011;28144;49.920;18.730;2023-07-29T05:54:23;4.40;;;2.78;;
42514;SDS011;28144;49.920;18.730;2023-07-29T05:56:49;4.18;;;3.00;;
42514;SDS011;28144;49.920;18.730;2023-07-29T05:59:15;4.72;;;2.55;;
42514;SDS011;28144;49.920;18.730;2023-07-29T06:01:40;4.72;;;2.13;;
42514;SDS011;28144;49.920;18.730;2023-07-29T06:04:06;5.32;;;2.33;;
42514;SDS011;28144;49.920;18.730;2023-07-29T06:06:32;8.18;;;2.67;;
42514;SDS011;28144;49.920;18.730;2023-07-29T06:08:58;5.50;;;2.53;;
42514;SDS011;28144;49.920;18.730;2023-07-29T06:11:24;4.30;;;2.20;;
42514;SDS011;28144;49.920;18.730;2023-07-29T06:13:50;4.30;;;2.33;;
42514;SDS011;28144;49.920;18.730;2023-07-29T06:16:15;6.85;;;2.40;;
42514;SDS011;28144;49.920;18.730;2023-07-29T06:18:41;3.20;;;2.33;;
42514;SDS011;28144;49.920;18.730;2023-07-29T06:21:07;2.15;;;1.70;;
42514;SDS011;28144;49.920;18.730;2023-07-29T06:23:34;7.95;;;2.05;;
42514;SDS011;28144;49.920;18.730;2023-07-29T06:25:59;4.97;;;2.25;;
42514;SDS011;28144;49.920;18.730;2023-07-29T06:28:26;3.55;;;2.25;;
42514;SDS011;28144;49.920;18.730;2023-07-29T06:30:52;6.05;;;1.95;;
42514;SDS011;28144;49.920;18.730;2023-07-29T06:33:20;4.90;;;2.47;;
42514;SDS011;28144;49.920;18.730;2023-07-29T06:35:46;3.22;;;1.90;;
42514;SDS011;28144;49.920;18.730;2023-07-29T06:38:12;2.65;;;1.88;;
42514;SDS011;28144;49.920;18.730;2023-07-29T06:40:37;2.88;;;1.83;;
42514;SDS011;28144;49.920;18.730;2023-07-29T06:43:03;4.50;;;1.83;;
42514;SDS011;28144;49.920;18.730;2023-07-29T06:45:29;7.00;;;2.17;;
42514;SDS011;28144;49.920;18.730;2023-07-29T06:47:55;2.30;;;1.60;;
42514;SDS011;28144;49.920;18.730;2023-07-29T06:50:20;2.47;;;1.92;;
42514;SDS011;28144;49.920;18.730;2023-07-29T06:52:46;6.13;;;1.70;;
42514;SDS011;28144;49.920;18.730;2023-07-29T06:55:12;2.05;;;1.60;;
42514;SDS011;28144;49.920;18.730;2023-07-29T06:57:38;2.78;;;1.50;;
42514;SDS011;28144;49.920;18.730;2023-07-29T07:00:03;6.55;;;1.60;;
42514;SDS011;28144;49.920;18.730;2023-07-29T07:02:30;2.35;;;1.48;;
42514;SDS011;28144;49.920;18.730;2023-07-29T07:04:56;3.10;;;1.80;;
42514;SDS011;28144;49.920;18.730;2023-07-29T07:07:22;3.10;;;1.75;;
42514;SDS011;28144;49.920;18.730;2023-07-29T07:09:47;2.08;;;1.50;;
42514;SDS011;28144;49.920;18.730;2023-07-29T07:12:13;2.45;;;1.70;;
42514;SDS011;28144;49.920;18.730;2023-07-29T07:14:39;2.47;;;1.70;;
42514;SDS011;28144;49.920;18.730;2023-07-29T07:17:05;3.58;;;1.60;;
42514;SDS011;28144;49.920;18.730;2023-07-29T07:19:30;1.80;;;1.55;;
42514;SDS011;28144;49.920;18.730;2023-07-29T07:21:56;4.43;;;1.75;;
42514;SDS011;28144;49.920;18.730;2023-07-29T07:24:22;6.97;;;1.52;;
42514;SDS011;28144;49.920;18.730;2023-07-29T07:26:47;1.70;;;1.60;;
42514;SDS011;28144;49.920;18.730;2023-07-29T07:31:39;3.45;;;1.70;;
42514;SDS011;28144;49.920;18.730;2023-07-29T07:34:05;1.63;;;1.30;;
42514;SDS011;28144;49.920;18.730;2023-07-29T07:36:31;2.00;;;1.50;;
42514;SDS011;28144;49.920;18.730;2023-07-29T07:38:56;2.78;;;1.70;;
42514;SDS011;28144;49.920;18.730;2023-07-29T07:41:22;2.88;;;1.80;;
42514;SDS011;28144;49.920;18.730;2023-07-29T07:43:49;2.15;;;1.70;;
42514;SDS011;28144;49.920;18.730;2023-07-29T07:46:15;2.67;;;1.67;;
42514;SDS011;28144;49.920;18.730;2023-07-29T07:48:40;1.70;;;1.48;;
42514;SDS011;28144;49.920;18.730;2023-07-29T07:51:09;2.35;;;1.60;;
42514;SDS011;28144;49.920;18.730;2023-07-29T07:53:36;8.52;;;2.28;;
42514;SDS011;28144;49.920;18.730;2023-07-29T07:56:02;2.88;;;1.80;;
42514;SDS011;28144;49.920;18.730;2023-07-29T07:58:27;3.33;;;1.65;;
42514;SDS011;28144;49.920;18.730;2023-07-29T08:01:00;4.07;;;1.95;;
42514;SDS011;28144;49.920;18.730;2023-07-29T08:03:26;5.25;;;1.80;;
42514;SDS011;28144;49.920;18.730;2023-07-29T08:05:54;2.40;;;1.63;;
42514;SDS011;28144;49.920;18.730;2023-07-29T08:08:19;5.43;;;1.63;;
42514;SDS011;28144;49.920;18.730;2023-07-29T08:10:45;2.58;;;1.80;;
42514;SDS011;28144;49.920;18.730;2023-07-29T08:13:10;1.77;;;1.40;;
42514;SDS011;28144;49.920;18.730;2023-07-29T08:15:36;3.05;;;2.08;;
42514;SDS011;28144;49.920;18.730;2023-07-29T08:18:02;2.05;;;1.85;;
42514;SDS011;28144;49.920;18.730;2023-07-29T08:20:31;5.97;;;1.80;;
42514;SDS011;28144;49.920;18.730;2023-07-29T08:22:56;1.92;;;1.45;;
42514;SDS011;28144;49.920;18.730;2023-07-29T08:25:22;1.50;;;1.40;;
42514;SDS011;28144;49.920;18.730;2023-07-29T08:27:48;7.72;;;1.73;;
42514;SDS011;28144;49.920;18.730;2023-07-29T08:30:14;3.60;;;1.73;;
42514;SDS011;28144;49.920;18.730;2023-07-29T08:32:41;1.75;;;1.65;;
42514;SDS011;28144;49.920;18.730;2023-07-29T08:37:32;2.83;;;2.10;;
42514;SDS011;28144;49.920;18.730;2023-07-29T08:39:59;2.75;;;1.83;;
42514;SDS011;28144;49.920;18.730;2023-07-29T08:46:05;3.17;;;1.80;;
42514;SDS011;28144;49.920;18.730;2023-07-29T08:48:33;5.47;;;1.83;;
42514;SDS011;28144;49.920;18.730;2023-07-29T08:51:01;6.60;;;2.15;;
42514;SDS011;28144;49.920;18.730;2023-07-29T08:53:27;2.63;;;1.75;;
42514;SDS011;28144;49.920;18.730;2023-07-29T08:58:21;4.28;;;1.80;;
42514;SDS011;28144;49.920;18.730;2023-07-29T09:00:47;2.75;;;1.73;;
42514;SDS011;28144;49.920;18.730;2023-07-29T09:03:14;3.38;;;1.95;;
42514;SDS011;28144;49.920;18.730;2023-07-29T09:05:39;3.00;;;2.30;;
42514;SDS011;28144;49.920;18.730;2023-07-29T09:08:05;4.68;;;2.03;;
42514;SDS011;28144;49.920;18.730;2023-07-29T09:10:34;3.22;;;1.70;;
42514;SDS011;28144;49.920;18.730;2023-07-29T09:13:01;3.38;;;1.70;;
42514;SDS011;28144;49.920;18.730;2023-07-29T09:15:28;2.10;;;1.90;;
42514;SDS011;28144;49.920;18.730;2023-07-29T09:17:56;2.83;;;1.60;;
42514;SDS011;28144;49.920;18.730;2023-07-29T09:20:26;2.42;;;1.80;;
42514;SDS011;28144;49.920;18.730;2023-07-29T09:22:57;1.77;;;1.55;;
42514;SDS011;28144;49.920;18.730;2023-07-29T09:25:25;3.92;;;1.77;;
42514;SDS011;28144;49.920;18.730;2023-07-29T09:27:51;4.88;;;1.80;;
42514;SDS011;28144;49.920;18.730;2023-07-29T09:30:17;1.90;;;1.60;;
42514;SDS011;28144;49.920;18.730;2023-07-29T09:32:43;4.85;;;1.50;;
42514;SDS011;28144;49.920;18.730;2023-07-29T09:35:10;2.80;;;1.63;;
42514;SDS011;28144;49.920;18.730;2023-07-29T09:37:37;2.42;;;1.90;;
42514;SDS011;28144;49.920;18.730;2023-07-29T09:40:04;3.40;;;1.60;;
42514;SDS011;28144;49.920;18.730;2023-07-29T09:42:31;2.35;;;1.70;;
42514;SDS011;28144;49.920;18.730;2023-07-29T09:44:57;2.03;;;1.70;;
42514;SDS011;28144;49.920;18.730;2023-07-29T09:47:24;3.22;;;1.50;;
42514;SDS011;28144;49.920;18.730;2023-07-29T09:49:51;4.05;;;1.85;;
42514;SDS011;28144;49.920;18.730;2023-07-29T09:52:17;6.13;;;1.67;;
42514;SDS011;28144;49.920;18.730;2023-07-29T09:54:44;4.72;;;1.80;;
42514;SDS011;28144;49.920;18.730;2023-07-29T09:57:11;2.92;;;1.80;;
42514;SDS011;28144;49.920;18.730;2023-07-29T09:59:39;2.95;;;1.55;;
42514;SDS011;28144;49.920;18.730;2023-07-29T10:02:06;3.70;;;1.40;;
42514;SDS011;28144;49.920;18.730;2023-07-29T10:04:35;2.67;;;1.90;;
42514;SDS011;28144;49.920;18.730;2023-07-29T10:09:26;2.30;;;1.80;;
42514;SDS011;28144;49.920;18.730;2023-07-29T10:14:18;1.50;;;1.40;;
42514;SDS011;28144;49.920;18.730;2023-07-29T10:20:26;1.30;;;1.20;;
42514;SDS011;28144;49.920;18.730;2023-07-29T10:22:52;1.85;;;1.38;;
42514;SDS011;28144;49.920;18.730;2023-07-29T10:25:22;5.68;;;2.05;;
42514;SDS011;28144;49.920;18.730;2023-07-29T10:33:10;3.58;;;1.80;;
42514;SDS011;28144;49.920;18.730;2023-07-29T10:35:35;4.00;;;1.50;;
42514;SDS011;28144;49.920;18.730;2023-07-29T10:38:03;3.65;;;1.40;;
42514;SDS011;28144;49.920;18.730;2023-07-29T10:40:50;2.83;;;1.45;;
42514;SDS011;28144;49.920;18.730;2023-07-29T10:43:31;2.03;;;1.55;;
42514;SDS011;28144;49.920;18.730;2023-07-29T10:45:59;2.33;;;1.25;;
42514;SDS011;28144;49.920;18.730;2023-07-29T10:48:43;4.15;;;1.60;;
42514;SDS011;28144;49.920;18.730;2023-07-29T10:53:55;2.15;;;1.38;;
42514;SDS011;28144;49.920;18.730;2023-07-29T10:56:32;3.15;;;1.40;;
42514;SDS011;28144;49.920;18.730;2023-07-29T11:02:39;2.70;;;1.60;;
42514;SDS011;28144;49.920;18.730;2023-07-29T11:05:27;2.22;;;1.33;;
42514;SDS011;28144;49.920;18.730;2023-07-29T11:07:51;1.65;;;1.30;;
42514;SDS011;28144;49.920;18.730;2023-07-29T11:10:17;1.98;;;1.40;;
42514;SDS011;28144;49.920;18.730;2023-07-29T11:12:50;4.03;;;1.30;;
42514;SDS011;28144;49.920;18.730;2023-07-29T11:15:18;2.53;;;1.73;;
42514;SDS011;28144;49.920;18.730;2023-07-29T11:17:58;3.95;;;1.23;;
42514;SDS011;28144;49.920;18.730;2023-07-29T11:20:26;2.85;;;0.90;;
42514;SDS011;28144;49.920;18.730;2023-07-29T11:22:54;1.92;;;1.20;;
42514;SDS011;28144;49.920;18.730;2023-07-29T11:25:26;2.13;;;1.30;;
42514;SDS011;28144;49.920;18.730;2023-07-29T11:27:57;1.40;;;1.27;;
42514;SDS011;28144;49.920;18.730;2023-07-29T11:30:24;1.65;;;1.48;;
42514;SDS011;28144;49.920;18.730;2023-07-29T11:32:53;1.52;;;1.20;;
42514;SDS011;28144;49.920;18.730;2023-07-29T11:35:21;1.55;;;1.30;;
42514;SDS011;28144;49.920;18.730;2023-07-29T11:37:48;1.67;;;1.20;;
42514;SDS011;28144;49.920;18.730;2023-07-29T11:40:18;1.48;;;1.13;;
42514;SDS011;28144;49.920;18.730;2023-07-29T11:42:49;1.33;;;1.20;;
42514;SDS011;28144;49.920;18.730;2023-07-29T11:45:16;1.23;;;1.00;;
42514;SDS011;28144;49.920;18.730;2023-07-29T11:47:44;1.08;;;0.98;;
42514;SDS011;28144;49.920;18.730;2023-07-29T11:50:10;1.13;;;1.02;;
42514;SDS011;28144;49.920;18.730;2023-07-29T11:52:46;2.90;;;1.40;;
42514;SDS011;28144;49.920;18.730;2023-07-29T11:55:13;1.20;;;1.02;;
42514;SDS011;28144;49.920;18.730;2023-07-29T11:57:39;2.72;;;1.27;;
42514;SDS011;28144;49.920;18.730;2023-07-29T12:00:14;0.90;;;0.90;;
42514;SDS011;28144;49.920;18.730;2023-07-29T12:02:40;1.65;;;1.20;;
42514;SDS011;28144;49.920;18.730;2023-07-29T12:05:07;1.27;;;1.10;;
42514;SDS011;28144;49.920;18.730;2023-07-29T12:07:34;1.42;;;1.23;;
42514;SDS011;28144;49.920;18.730;2023-07-29T12:12:25;5.40;;;1.95;;
42514;SDS011;28144;49.920;18.730;2023-07-29T12:17:19;1.95;;;1.38;;
42514;SDS011;28144;49.920;18.730;2023-07-29T12:19:45;2.72;;;1.10;;
42514;SDS011;28144;49.920;18.730;2023-07-29T12:22:10;1.35;;;1.08;;
42514;SDS011;28144;49.920;18.730;2023-07-29T12:24:43;1.60;;;1.13;;
42514;SDS011;28144;49.920;18.730;2023-07-29T12:27:12;1.65;;;1.30;;
42514;SDS011;28144;49.920;18.730;2023-07-29T12:29:45;2.35;;;1.05;;
42514;SDS011;28144;49.920;18.730;2023-07-29T12:32:14;1.23;;;1.13;;
42514;SDS011;28144;49.920;18.730;2023-07-29T12:34:40;1.58;;;1.20;;
42514;SDS011;28144;49.920;18.730;2023-07-29T12:37:06;4.28;;;0.88;;
42514;SDS011;28144;49.920;18.730;2023-07-29T12:39:33;3.58;;;0.98;;
42514;SDS011;28144;49.920;18.730;2023-07-29T12:42:01;0.80;;;0.80;;
42514;SDS011;28144;49.920;18.730;2023-07-29T12:44:35;1.55;;;0.93;;
42514;SDS011;28144;49.920;18.730;2023-07-29T12:47:02;1.55;;;0.80;;
42514;SDS011;28144;49.920;18.730;2023-07-29T12:49:29;2.63;;;1.00;;
42514;SDS011;28144;49.920;18.730;2023-07-29T12:51:56;2.95;;;1.15;;
42514;SDS011;28144;49.920;18.730;2023-07-29T12:54:22;1.33;;;1.00;;
42514;SDS011;28144;49.920;18.730;2023-07-29T12:56:47;3.30;;;1.25;;
42514;SDS011;28144;49.920;18.730;2023-07-29T13:01:40;2.85;;;1.25;;
42514;SDS011;28144;49.920;18.730;2023-07-29T13:04:06;1.10;;;1.00;;
42514;SDS011;28144;49.920;18.730;2023-07-29T13:08:57;1.85;;;0.95;;
42514;SDS011;28144;49.920;18.730;2023-07-29T13:11:23;3.58;;;1.20;;
42514;SDS011;28144;49.920;18.730;2023-07-29T13:16:14;1.73;;;1.30;;
42514;SDS011;28144;49.920;18.730;2023-07-29T13:18:40;3.47;;;1.20;;
42514;SDS011;28144;49.920;18.730;2023-07-29T13:21:06;1.48;;;1.15;;
42514;SDS011;28144;49.920;18.730;2023-07-29T13:23:32;2.90;;;1.10;;
42514;SDS011;28144;49.920;18.730;2023-07-29T13:25:58;2.13;;;1.15;;
42514;SDS011;28144;49.920;18.730;2023-07-29T13:28:24;4.10;;;1.30;;
42514;SDS011;28144;49.920;18.730;2023-07-29T13:35:40;4.38;;;1.35;;
42514;SDS011;28144;49.920;18.730;2023-07-29T13:38:06;1.33;;;1.05;;
42514;SDS011;28144;49.920;18.730;2023-07-29T13:42:58;2.53;;;1.20;;
42514;SDS011;28144;49.920;18.730;2023-07-29T13:45:23;1.15;;;0.90;;
42514;SDS011;28144;49.920;18.730;2023-07-29T13:47:49;2.13;;;1.00;;
42514;SDS011;28144;49.920;18.730;2023-07-29T13:50:15;1.17;;;1.02;;
42514;SDS011;28144;49.920;18.730;2023-07-29T13:52:42;0.93;;;0.93;;
42514;SDS011;28144;49.920;18.730;2023-07-29T13:55:07;1.50;;;1.10;;
42514;SDS011;28144;49.920;18.730;2023-07-29T13:57:33;1.10;;;1.00;;
42514;SDS011;28144;49.920;18.730;2023-07-29T13:59:59;1.20;;;1.10;;
42514;SDS011;28144;49.920;18.730;2023-07-29T14:02:25;4.68;;;0.98;;
42514;SDS011;28144;49.920;18.730;2023-07-29T14:04:56;1.60;;;1.10;;
42514;SDS011;28144;49.920;18.730;2023-07-29T14:07:22;2.75;;;1.38;;
42514;SDS011;28144;49.920;18.730;2023-07-29T14:09:48;1.13;;;0.80;;
42514;SDS011;28144;49.920;18.730;2023-07-29T14:14:43;1.75;;;1.00;;
42514;SDS011;28144;49.920;18.730;2023-07-29T14:17:09;2.80;;;0.90;;
42514;SDS011;28144;49.920;18.730;2023-07-29T14:19:35;1.50;;;0.80;;
42514;SDS011;28144;49.920;18.730;2023-07-29T14:22:04;2.38;;;0.90;;
42514;SDS011;28144;49.920;18.730;2023-07-29T14:24:30;0.80;;;0.80;;
42514;SDS011;28144;49.920;18.730;2023-07-29T14:26:55;0.95;;;0.70;;
42514;SDS011;28144;49.920;18.730;2023-07-29T14:29:21;0.98;;;0.80;;
42514;SDS011;28144;49.920;18.730;2023-07-29T14:34:12;1.45;;;0.90;;
42514;SDS011;28144;49.920;18.730;2023-07-29T14:36:38;1.67;;;1.00;;
42514;SDS011;28144;49.920;18.730;2023-07-29T14:41:30;0.80;;;0.65;;
42514;SDS011;28144;49.920;18.730;2023-07-29T14:43:56;2.15;;;0.80;;
42514;SDS011;28144;49.920;18.730;2023-07-29T14:46:22;16.25;;;1.10;;
42514;SDS011;28144;49.920;18.730;2023-07-29T14:53:39;1.13;;;0.80;;
42514;SDS011;28144;49.920;18.730;2023-07-29T14:58:30;2.03;;;0.80;;
42514;SDS011;28144;49.920;18.730;2023-07-29T15:00:57;0.88;;;0.88;;
42514;SDS011;28144;49.920;18.730;2023-07-29T15:05:49;0.90;;;0.90;;
42514;SDS011;28144;49.920;18.730;2023-07-29T15:08:15;2.22;;;0.70;;
42514;SDS011;28144;49.920;18.730;2023-07-29T15:10:40;3.00;;;0.80;;
42514;SDS011;28144;49.920;18.730;2023-07-29T15:13:09;2.78;;;0.80;;
42514;SDS011;28144;49.920;18.730;2023-07-29T15:18:01;1.35;;;0.82;;
42514;SDS011;28144;49.920;18.730;2023-07-29T15:20:27;3.33;;;0.70;;
42514;SDS011;28144;49.920;18.730;2023-07-29T15:22:52;2.97;;;0.90;;
42514;SDS011;28144;49.920;18.730;2023-07-29T15:25:18;4.30;;;1.00;;
42514;SDS011;28144;49.920;18.730;2023-07-29T15:27:44;0.70;;;0.70;;
42514;SDS011;28144;49.920;18.730;2023-07-29T15:30:10;3.80;;;0.75;;
42514;SDS011;28144;49.920;18.730;2023-07-29T15:32:37;1.60;;;0.90;;
42514;SDS011;28144;49.920;18.730;2023-07-29T15:35:03;1.00;;;0.90;;
42514;SDS011;28144;49.920;18.730;2023-07-29T15:37:29;3.50;;;0.70;;
42514;SDS011;28144;49.920;18.730;2023-07-29T15:39:55;1.45;;;0.82;;
42514;SDS011;28144;49.920;18.730;2023-07-29T15:42:20;0.65;;;0.65;;
42514;SDS011;28144;49.920;18.730;2023-07-29T15:44:46;2.47;;;0.82;;
42514;SDS011;28144;49.920;18.730;2023-07-29T15:47:12;3.67;;;0.80;;
42514;SDS011;28144;49.920;18.730;2023-07-29T15:49:41;0.93;;;0.70;;
42514;SDS011;28144;49.920;18.730;2023-07-29T15:52:06;2.35;;;0.75;;
42514;SDS011;28144;49.920;18.730;2023-07-29T15:54:34;1.00;;;0.70;;
42514;SDS011;28144;49.920;18.730;2023-07-29T15:56:59;2.47;;;0.60;;